Race Coverage Navigation

TS # 23 / Ulysses, KS  2019

 


TS STATS
TS Distance 54.16 
Total Distance 1394.82 
Miles To Go 1675.46 
TS Climbing 1345 
Total Climbing
TS  Elevation
TS  Net Elevation 2129 
Map Filename Open Map 
Directions Filename  
Latitude 37.58 
Longitude -101.35 
Google Map  TimeStation Map 


TS Arrival Data
Arr Ord  #/Name Arrival DT TS Dst Avg This TS Avg Overall Ascending
 1 607 - Sabine Bird (Team Bean)  06/17/2019 21:14 54.16  24.81  9.35 
 2 605 - Christian Echavarria  06/17/2019 20:20 54.16  14.51  9.43 
 3 608 - Elin Starup  06/17/2019 15:01 54.16  11.05  9.75 
 4 161 - Seana Hogan  06/17/2019 14:17 54.16  15.77  9.81 
 5 618 - GREGORY ROBINSON  06/17/2019 12:35 54.16  11.95  9.94 
 6 539 - Kari Rouvinen  06/17/2019 12:46 54.16  9.15  9.94 
 7 527 - TALABARDON (Herve Talabardon)  06/17/2019 12:00 54.16  15.04  10 
 8 424 - Team i RON man Veterans supporting Veterans  06/17/2019 9:37 54.16  13.83  10.17 
 9 399 - Valerio Zamboni  06/17/2019 4:35 54.16  13.05  10.57 
 10 610 - Kabir Rachure  06/17/2019 0:19 54.16  15.19  10.9 
 11 510 - John C. Tarlton  06/16/2019 21:48 54.16  10.59  11.13 
 12 411 - Geoff Brunner  06/16/2019 19:59 54.16  12.17  11.3 
 13 559 - Team Martin RAAM 2019 (Martin Bergmeister)  06/16/2019 18:34 54.16  11.24  11.42 
 14 611 - Marcelo Soares " MIXIRICA "  06/16/2019 17:52 54.16  10.87  11.48 
 15 604 - Chieko Ozawa  06/16/2019 16:33 54.16  15.4  11.58 
 16 442 - Joe Barr  06/16/2019 16:48 54.16  12.6  11.6 
 17 568 - Alexandra Meixner  06/16/2019 15:20 54.16  12.6  11.69 
 18 615 - Philipp Amhof  06/16/2019 15:10 54.16  8.06  11.73 
 19 367 - Daniela Genovesi  06/16/2019 12:51 54.16  17.19  11.95 
 20 603 - Alan Bradley  06/16/2019 11:54 54.16  14.84  12.07 
 21 603 - Alan Bradley  06/16/2019 16:04 54.16  14.84  12.07 
 22 623 - Ultra Paka Racing Team (Daniel Polman)  06/16/2019 11:12 54.16  7.7  12.12 
 23 416 - Leah Goldstein  06/16/2019 9:15 54.16  15.47  12.33 
 24 329 - Peter Oyler  06/16/2019 8:45 54.16  7.03  12.44 
 25 622 - Thomas Odom-Team Kyle Pease Foundation  06/16/2019 7:28 54.16  16.58  12.53 
 26 612 - Markus K. Brandl  06/16/2019 0:46 54.16  22.72  13.35 
 27 T205 - Prevent Breast Cancer powered by Endomag  06/19/2019 23:34 54.16  18.78  13.35 
 28 529 - Isa Pulver  06/15/2019 22:45 54.16  14.38  13.59 
 29 T210 - Bike Wine Team  06/19/2019 20:57 54.16  22.26  13.7 
 30 617 - SOLO.kiwi (Craig Harper)  06/15/2019 21:11 54.16  13.37  13.82 
 31 T203 - JPsDuo  06/19/2019 17:01 54.16  19.81  14.24 
 32 609 - Jakob Olsen  06/15/2019 16:23 54.16  13.1  14.52 
 33 288 - Dave Haase  06/15/2019 16:33 54.16  15.26  14.54 
 34 T409 - Serpentine Golden Girls  06/19/2019 14:20 54.16  19.94  14.68 
 35 T207 - Team Life Time  06/19/2019 12:22 54.16  19.34  14.96 
 36 279 - Marko Baloh  06/15/2019 13:12 54.16  17.76  15.07 
 37 T200 - AIR RELAX GoPro TEAM BRASIL  06/19/2019 10:36 54.16  21.38  15.23 
 38 T417 - Team4RAAM 2019 powered by TGW Living Logistics  06/19/2019 9:11 54.16  33.85  15.54 
 39 T801 - Mind Over Matter  06/19/2019 7:13 54.16  20.18  15.9 
 40 T402 - EA/WFP RAAM Team  06/19/2019 5:36 54.16  19.12  16.14 
 41 T806 - Team SuperMarrow  06/19/2019 5:53 54.16  18.05  16.16 
 42 T413 - TEAM BRASIL - SKIPPER  06/19/2019 4:51 54.16  20.7  16.32 
 43 T204 - Lucan CRC  06/19/2019 3:54 54.16  21.1  16.44 
 44 T415 - TEAM FIRE VELO 935  06/19/2019 2:59 54.16  21.52  16.69 
 45 T206 - Project Linear Acceleration  06/19/2019 2:25 54.16  20.31  16.74 
 46 T403 - EKJ Denmark  06/19/2019 2:15 54.16  10.8  16.8 
 47 T803 - Team EndoPark  06/19/2019 2:09 54.16  19.12  16.88 
 48 T405 - High Rollers  06/19/2019 1:52 54.16  26  16.88 
 49 T202 - Integra Medical - BAA Racing  06/19/2019 0:54 54.16  17.85  17.04 
 50 T414 - Brazil Nuts  06/19/2019 0:56 54.16  16.41  17.11 
 51 377 - Christoph Strasser  06/15/2019 1:04 54.16  15.85  17.34 
 52 T410 - Soap-Aid  06/18/2019 22:50 54.16  25  17.54 
 53 T418 - The Opportunists  06/18/2019 21:01 54.16  24.07  17.99 
 54 T406 - Operation Walk Midwest  06/18/2019 18:20 54.16  21.24  18.58 
 55 T808 - Antonia's Friends 2019  06/18/2019 18:38 54.16  22.57  18.59 
 56 T400 - Cantastic4  06/18/2019 17:48 54.16  20.31  18.69 
 57 T408 - Radeln-fuer-Kinder (Cycling-for-Kids)  06/18/2019 17:06 54.16  21.66  18.9 
 58 T804 - Team FSHD Skyland Trail  06/18/2019 17:01 54.16  23.89  18.99 
 59 T416 - Team Rotary Raams Polio  06/18/2019 16:06 54.16  23.21  19.19 
 60 T412 - Team Aspect  06/18/2019 15:29 54.16  22.57  19.34 
 61 T802 - Scorchers  06/18/2019 15:31 54.16  23.55  19.37 
 62 T407 - Julian Becker   06/18/2019 13:59 54.16  25  19.73 
 63 T807 - Team ZOE International  06/18/2019 14:13 54.16  22.26  19.75 
 64 T201 - EAT WELL  06/18/2019 12:42 54.16  23.55  20.02 
 65 T805 - Team Oceanside  06/18/2019 13:08 54.16  24.25  20.05 
 66 T404 - Gentlemen of speed  06/18/2019 8:51 54.16  23.72  21.26 
 67 T401 - Data Techniques powered by Networks Centre  06/18/2019 8:39 54.16  21.38  21.31 
 68 T800 - Backstedt Racing Project 14  06/18/2019 5:40 54.16  25.59  22.43 
 69 T411 - team alpha - tischlerei groemmer  06/18/2019 4:55 54.16  26.21  22.66